Home > Products > Valid Products > TAF

000
FTUS46 KEKA 230544
TAFACV
TAF
KACV 230544Z 2306/2406 14012G20KT P6SM -RA OVC100
     FM230700 15011KT 5SM -RA BR SCT025 OVC050
     FM231500 16009KT 4SM -RA SCT007 BKN025 OVC050
     FM232000 22006KT 6SM BR SCT007 OVC025=



000
FTUS46 KEKA 230544
TAFUKI
TAF
KUKI 230544Z 2306/2406 00000KT P6SM VCSH SCT060 OVC180
     FM231200 16003KT P6SM -RA BKN040 OVC080
     FM231600 17004KT 6SM -RA BR SCT025 OVC040
     FM232200 13004KT 5SM -RA BR OVC040=



000
FTUS46 KEKA 230544
TAFCEC
TAF
KCEC 230544Z 2306/2406 17018G30KT P6SM BKN025 OVC060
      TEMPO 2306/2310 5SM -RA SCT019 BKN025
     FM231200 17015G20KT P6SM VCSH SCT025 BKN035
     FM231600 18009KT 5SM -RA BR SCT015 BKN025
     FM232100 18006KT P6SM BKN030 OVC050=



000
FTUS46 KEKA 230246 AAA
TAFCEC
TAF AMD
KCEC 230246Z 2303/2324 17018G30KT 5SM -RA BR BKN025 OVC035
      TEMPO 2303/2305 2SM RA BR FEW008 BKN015
     FM231000 17015G20KT 3SM RA BR SCT007 OVC015
     FM232000 18010KT P6SM -RA SCT015 BKN025 OVC050=



000
FTUS46 KEKA 230239 AAA
TAFACV
TAF AMD
KACV 230239Z 2303/2324 15007KT 6SM -RA BR SCT029 OVC045
     FM230400 16012G20KT 5SM -RA OVC025
     FM231500 17008KT 3SM -RA SCT007 OVC025=



000
FTUS46 KEKA 222344 CCA
TAFACV
TAF COR
KACV 222344Z 2300/2324 17014G23KT P6SM SCT029 OVC070
      TEMPO 2300/2302 6SM -RA BR FEW020 BKN029
     FM230200 17013G20KT 6SM -RA BR BKN029 OVC050
     FM230700 16012G20KT 5SM -RA OVC025
     FM231500 17008KT 3SM -RA SCT007 OVC025=



000
FTUS46 KEKA 222341
TAFCEC
TAF
KCEC 222341Z 2300/2324 16020G30KT 6SM -RA BR BKN035 OVC040
      TEMPO 2300/2303 16024G35KT 4SM RA BR SCT015 BKN020 OVC040
     FM230300 17018G30KT 5SM -RA BR BKN015 OVC040
     FM231000 17015G20KT 3SM RA BR SCT007 OVC015
     FM232000 18010KT P6SM -RA SCT015 BKN025 OVC050=



000
FTUS46 KEKA 222341
TAFACV
TAF
KACV 222341Z 2300/2324 17014G23KT P6SM -RA SCT029 OVC070
      TEMPO 2300/2302 6SM -RA BR FEW020 BKN029
     FM230200 17013G20KT 6SM -RA BR BKN029 OVC050
     FM230700 16012G20KT 5SM -RA OVC025
     FM231500 17008KT 3SM -RA SCT007 OVC025=



000
FTUS46 KEKA 222341
TAFUKI
TAF
KUKI 222341Z 2300/2324 VRB03KT P6SM SCT045
     FM230100 VRB05KT P6SM SCT060 OVC180
     FM230900 VRB03KT P6SM BKN060 BKN100 OVC180 PROB30 2309/2313
      P6SM -RA BKN060
     FM231300 15005KT P6SM -RA BKN040 OVC080=



000
FTUS46 KEKA 222220 AAA
TAFACV
TAF AMD
KACV 222220Z 2222/2318 17014G23KT P6SM -RA SCT029 BKN050 OVC080
     FM230200 17013G20KT 6SM -RA BR SCT029 OVC050
      TEMPO 2302/2306 5SM -RA BR BKN029
     FM230600 16012G20KT 5SM -RA OVC025=



000
FTUS46 KEKA 222037 AAA
TAFCEC
TAF AMD
KCEC 222037Z 2221/2318 16015G26KT P6SM -RA SCT015 BKN035 OVC050
      TEMPO 2223/2302 16021G35KT 6SM -RA BR SCT015 BKN020 OVC050
     FM230200 17018G30KT 4SM -RA BR BKN015 OVC300=



000
FTUS46 KEKA 222037 AAA
TAFCEC
TAF AMD
KCEC 222037Z 2221/2318 16015G26KT P6SM -RA SCT015 BKN035 OVC050
      TEMPO 2223/2302 16021G35KT 6SM -RA BR SCT015 BKN020 OVC050
     FM230200 17018G30KT 4SM -RA BR BKN015 OVC300=



000
FTUS46 KEKA 221804 CCA
TAFCEC
TAF COR
KCEC 221804Z 2218/2318 16015G25KT 6SM -RA BR SCT010 BKN035 OVC050
      TEMPO 2219/2223 16020G35KT 3SM -RA BR SCT010 OVC025
     FM222300 16020G32KT 5SM -RA BR SCT010 BKN020 OVC035
      TEMPO 2223/2302 16021G35KT 2SM RA BR BKN010 OVC020
     FM230200 17018G30KT 3SM -RA BR OVC010=



000
FTUS46 KEKA 221804 CCA
TAFCEC
TAF COR
KCEC 221804Z 2218/2318 16015G25KT 6SM -RA BR SCT010 BKN035 OVC050
      TEMPO 2219/2223 16020G35KT 3SM -RA BR SCT010 OVC025
     FM222300 16020G32KT 5SM -RA BR SCT010 BKN020 OVC035
      TEMPO 2223/2302 16021G35KT 2SM RA BR BKN010 OVC020
     FM230200 17018G30KT 3SM -RA BR OVC010=



000
FTUS46 KEKA 221741
TAFUKI
TAF
KUKI 221741Z 2218/2318 16007KT P6SM SCT080 BKN200
     FM230100 VRB05KT P6SM SCT060 OVC180
     FM230900 VRB03KT P6SM BKN060 BKN100 OVC180 PROB30 2309/2313
      P6SM -RA BKN060
     FM231300 15005KT P6SM -RA BKN040 OVC080=



000
FTUS46 KEKA 221741
TAFACV
TAF
KACV 221741Z 2218/2318 17009KT P6SM VCSH SCT030 BKN050
     FM222200 17012KT P6SM -RA SCT027 OVC050
      TEMPO 2222/2301 6SM -RA BR BKN027 OVC040
     FM230100 15012KT 5SM -RA BR BKN025 OVC030
     FM230500 16012G20KT 5SM -RA OVC025=



000
FTUS46 KEKA 221741
TAFCEC
TAF
KCEC 221741Z 2218/2318 16015G25KT 6SM -RA BR SCT010 BKN030 OVC050
      TEMPO 2219/2223 16020G35KT 3SM -RA BR SCT010 OVC025
     FM222300 16020G32KT 5SM -RA BR SCT010 BKN020 OVC035
      TEMPO 2223/2302 16021G35KT 2SM RA BR BKN010 OVC020
     FM230200 17018G30KT 3SM -RA BR OVC010=



000
FTUS46 KEKA 221741
TAFUKI
TAF
KUKI 221741Z 2218/2318 16007KT P6SM SCT080 BKN200
     FM230100 VRB05KT P6SM SCT060 OVC180
     FM230900 VRB03KT P6SM BKN060 BKN100 OVC180 PROB30 2309/2313
      P6SM -RA BKN060
     FM231300 15005KT P6SM -RA BKN040 OVC080=



000
FTUS46 KEKA 221741
TAFCEC
TAF
KCEC 221741Z 2218/2318 16015G25KT 6SM -RA BR SCT010 BKN030 OVC050
      TEMPO 2219/2223 16020G35KT 3SM -RA BR SCT010 OVC025
     FM222300 16020G32KT 5SM -RA BR SCT010 BKN020 OVC035
      TEMPO 2223/2302 16021G35KT 2SM RA BR BKN010 OVC020
     FM230200 17018G30KT 3SM -RA BR OVC010=



000
FTUS46 KEKA 221741
TAFACV
TAF
KACV 221741Z 2218/2318 17009KT P6SM VCSH SCT030 BKN050
     FM222200 17012KT P6SM -RA SCT027 OVC050
      TEMPO 2222/2301 6SM -RA BR BKN027 OVC040
     FM230100 15012KT 5SM -RA BR BKN025 OVC030
     FM230500 16012G20KT 5SM -RA OVC025=



000
FTUS46 KEKA 221648 AAB
TAFCEC
TAF AMD
KCEC 221648Z 2217/2312 16018G27KT P6SM SCT025 BKN035 OVC050
      TEMPO 2217/2221 16021G32KT 6SM -RA BKN025 OVC035
     FM222100 16021G32KT 6SM -RA BR SCT010 BKN020 OVC035
      TEMPO 2221/2301 4SM -RA BR SCT020 OVC030
     FM230100 17018G25KT 3SM -RA BR OVC010=



000
FTUS46 KEKA 221648 AAB
TAFCEC
TAF AMD
KCEC 221648Z 2217/2312 16018G27KT P6SM SCT025 BKN035 OVC050
      TEMPO 2217/2221 16021G32KT 6SM -RA BKN025 OVC035
     FM222100 16021G32KT 6SM -RA BR SCT010 BKN020 OVC035
      TEMPO 2221/2301 4SM -RA BR SCT020 OVC030
     FM230100 17018G25KT 3SM -RA BR OVC010=



000
FTUS46 KEKA 221606 AAA
TAFACV
TAF AMD
KACV 221606Z 2216/2312 13008KT P6SM FEW050 OVC060
     FM222000 16012KT P6SM FEW025 OVC050
      TEMPO 2220/2224 -RA OVC025
     FM230000 15012KT P6SM -RA BKN025 OVC030
     FM230500 16012G20KT 5SM -RA OVC025=



000
FTUS46 KEKA 221606 AAA
TAFACV
TAF AMD
KACV 221606Z 2216/2312 13008KT P6SM FEW050 OVC060
     FM222000 16012KT P6SM FEW025 OVC050
      TEMPO 2220/2224 -RA OVC025
     FM230000 15012KT P6SM -RA BKN025 OVC030
     FM230500 16012G20KT 5SM -RA OVC025=



000
FTUS46 KEKA 221529 CCA
TAFCEC
TAF COR
KCEC 221529Z 2215/2312 16018G27KT P6SM SCT025 BKN035 OVC050
      TEMPO 2216/2219 -RA BKN025
     FM230100 17018G25KT 3SM -RA BR OVC010=



000
FTUS46 KEKA 221528 AAA
TAFCEC
TAF AMD
KCEC 221528Z 2215/2312 16018G27KT P6SM SCT025 BKN035 OVC050
      TEMPO 2215/2219 -RA BKN025
     FM230100 17018G25KT 3SM -RA BR OVC010=



000
FTUS46 KEKA 221139
TAFUKI
TAF
KUKI 221139Z 2212/2312 00000KT P6SM SCT200
     FM222000 VRB04KT P6SM OVC150=



000
FTUS46 KEKA 221139
TAFCEC
TAF
KCEC 221139Z 2212/2312 16015G25KT P6SM SCT025 BKN035 OVC050
      TEMPO 2212/2214 -RA BKN025
     FM221400 16019G27KT 4SM -RA BR OVC025
     FM230100 17018G25KT 3SM -RA BR OVC010=



000
FTUS46 KEKA 221139
TAFACV
TAF
KACV 221139Z 2212/2312 13007KT P6SM FEW035 OVC060
     FM221500 16012KT P6SM FEW025 OVC050
      TEMPO 2220/2224 -RA OVC025
     FM230000 15012KT P6SM -RA BKN025 OVC050
     FM230500 16012G20KT 5SM -RA OVC025=



000
FTUS46 KEKA 220541
TAFUKI
TAF
KUKI 220541Z 2206/2306 00000KT P6SM SCT200
     FM222000 VRB04KT P6SM OVC150=



000
FTUS46 KEKA 220541
TAFACV
TAF
KACV 220541Z 2206/2306 15005KT P6SM FEW050 OVC100
     FM221700 16009KT P6SM FEW035 OVC050
      TEMPO 2221/2224 -RA OVC035
     FM230000 15008KT P6SM -RA BKN035 OVC050
     FM230500 16010G16KT 5SM -RA OVC025=



000
FTUS46 KEKA 220541
TAFCEC
TAF
KCEC 220541Z 2206/2306 18012KT P6SM OVC150
     FM220900 16015G22KT P6SM BKN035 OVC050
      TEMPO 2210/2213 -RA OVC035
     FM221300 16018G27KT 4SM -RA BR OVC025
     FM221800 17019G27KT 3SM RA BR OVC020
     FM230100 17018G25KT 3SM -RA BR OVC010=



000
FTUS46 KEKA 220541
TAFCEC
TAF
KCEC 220541Z 2206/2306 18012KT P6SM OVC150
     FM220900 16015G22KT P6SM BKN035 OVC050
      TEMPO 2210/2213 -RA OVC035
     FM221300 16018G27KT 4SM -RA BR OVC025
     FM221800 17019G27KT 3SM RA BR OVC020
     FM230100 17018G25KT 3SM -RA BR OVC010=



000
FTUS46 KEKA 220541
TAFACV
TAF
KACV 220541Z 2206/2306 15005KT P6SM FEW050 OVC100
     FM221700 16009KT P6SM FEW035 OVC050
      TEMPO 2221/2224 -RA OVC035
     FM230000 15008KT P6SM -RA BKN035 OVC050
     FM230500 16010G16KT 5SM -RA OVC025=



000
FTUS46 KEKA 220541
TAFUKI
TAF
KUKI 220541Z 2206/2306 00000KT P6SM SCT200
     FM222000 VRB04KT P6SM OVC150=



000
FTUS46 KEKA 212350
TAFACV
TAF
KACV 212350Z 2200/2224 22005KT P6SM OVC150
     FM220300 14005KT P6SM FEW050 OVC100
      TEMPO 2217/2221 -RA OVC035
     FM222100 14008KT P6SM -RA BKN035 OVC050=



000
FTUS46 KEKA 212350
TAFCEC
TAF
KCEC 212350Z 2200/2224 18012KT P6SM OVC150
     FM220900 16015G22KT P6SM BKN035 OVC050
      TEMPO 2210/2213 -RA OVC035
     FM221300 16018G27KT 4SM -RA BR OVC025
     FM221800 17019G27KT 3SM RA BR OVC020=



000
FTUS46 KEKA 212350
TAFUKI
TAF
KUKI 212350Z 2200/2224 30008KT P6SM SCT200
     FM220300 00000KT P6SM SCT200
     FM222000 15005KT P6SM OVC200=



000
FTUS46 KEKA 211742
TAFUKI
TAF
KUKI 211742Z 2118/2218 29009KT P6SM SCT250
     FM220300 30005KT P6SM SCT100 BKN250=



000
FTUS46 KEKA 211742
TAFACV
TAF
KACV 211742Z 2118/2218 16007KT P6SM FEW035 SCT050 BKN150
     FM212100 22009KT P6SM FEW035 SCT050 BKN150
     FM220300 14005KT P6SM SCT050 OVC100
     FM220600 14005KT P6SM FEW035 BKN050 OVC100
     FM221200 14008KT P6SM -RA BKN035 OVC050=



000
FTUS46 KEKA 211742
TAFCEC
TAF
KCEC 211742Z 2118/2218 16012KT P6SM SCT028 OVC250
     FM212000 16013G18KT P6SM SCT028 BKN070 OVC250
      TEMPO 2122/2124 BKN028
     FM220100 15012KT P6SM SCT025 BKN050 OVC150
     FM220500 15010KT P6SM VCSH SCT020 OVC050
     FM220900 15015G22KT P6SM -RA BKN020 OVC050
     FM221500 15015G22KT 4SM -RA BR OVC015=



000
FTUS46 KEKA 211556 AAA
TAFUKI
TAF AMD
KUKI 211556Z 2116/2212 00000KT P6SM SCT006 SCT011
     FM211800 29005KT P6SM SCT250
     FM220300 00000KT P6SM SCT250=



000
FTUS46 KEKA 211556 AAA
TAFUKI
TAF AMD
KUKI 211556Z 2116/2212 00000KT P6SM SCT006 SCT011
     FM211800 29005KT P6SM SCT250
     FM220300 00000KT P6SM SCT250=



000
FTUS46 KEKA 211148 CCA
TAFUKI
TAF COR
KUKI 211148Z 2112/2212 00000KT P6SM FEW002 BKN011
     FM211800 29005KT P6SM SCT250
     FM220300 00000KT P6SM SCT250=



000
FTUS46 KEKA 211148 CCA
TAFUKI
TAF COR
KUKI 211148Z 2112/2212 00000KT P6SM FEW002 BKN011
     FM211800 29005KT P6SM SCT250
     FM220300 00000KT P6SM SCT250=



000
FTUS46 KEKA 211136
TAFUKI
TAF
KUKI 211136Z 2112/2212 00000KT P6SM FEW002 SCT010 BKN020
     FM211800 29005KT P6SM SCT250
     FM220300 00000KT P6SM SCT250=



000
FTUS46 KEKA 211136
TAFUKI
TAF
KUKI 211136Z 2112/2212 00000KT P6SM FEW002 SCT010 BKN020
     FM211800 29005KT P6SM SCT250
     FM220300 00000KT P6SM SCT250=



000
FTUS46 KEKA 211136
TAFCEC
TAF
KCEC 211136Z 2112/2212 15011KT 6SM BR VCSH FEW010 SCT020 BKN050
      TEMPO 2112/2114 5SM -SHRA BKN020
     FM211800 16012KT P6SM SCT050 BKN100
     FM220400 15012KT P6SM FEW035 OVC050
     FM220900 15015G22KT P6SM SCT035 OVC050=



000
FTUS46 KEKA 211136
TAFACV
TAF
KACV 211136Z 2112/2212 13006KT 6SM BR FEW002 SCT025 BKN050
     FM211800 16008KT P6SM SCT050 BKN150
     FM212100 22008KT P6SM BKN150
     FM220300 14005KT P6SM SCT050 OVC100=



000
FTUS46 KEKA 211136
TAFACV
TAF
KACV 211136Z 2112/2212 13006KT 6SM BR FEW002 SCT025 BKN050
     FM211800 16008KT P6SM SCT050 BKN150
     FM212100 22008KT P6SM BKN150
     FM220300 14005KT P6SM SCT050 OVC100=



000
FTUS46 KEKA 211136
TAFCEC
TAF
KCEC 211136Z 2112/2212 15011KT 6SM BR VCSH FEW010 SCT020 BKN050
      TEMPO 2112/2114 5SM -SHRA BKN020
     FM211800 16012KT P6SM SCT050 BKN100
     FM220400 15012KT P6SM FEW035 OVC050
     FM220900 15015G22KT P6SM SCT035 OVC050=



000
FTUS46 KEKA 211009 AAB
TAFCEC
TAF AMD
KCEC 211009Z 2110/2206 16011KT 6SM BR VCSH SCT002 SCT020 BKN050
     FM211800 16010KT P6SM BKN100=



000
FTUS46 KEKA 211009 AAB
TAFCEC
TAF AMD
KCEC 211009Z 2110/2206 16011KT 6SM BR VCSH SCT002 SCT020 BKN050
     FM211800 16010KT P6SM BKN100=



000
FTUS46 KEKA 210720 AAA
TAFCEC
TAF AMD
KCEC 210720Z 2107/2206 17009KT P6SM BKN015 BKN060
     FM210900 15009KT 4SM BR SCT002 SCT020
     FM211800 16010KT P6SM BKN100=



000
FTUS46 KEKA 210539
TAFUKI
TAF
KUKI 210539Z 2106/2206 32004KT P6SM VCSH FEW045
     FM211000 00000KT P6SM SCT010 BKN020
     FM211800 29005KT P6SM SKC=



000
FTUS46 KEKA 210539
TAFCEC
TAF
KCEC 210539Z 2106/2206 20008KT P6SM SCT020
     FM210900 15009KT 4SM BR SCT002
     FM211800 16010KT P6SM BKN100=



000
FTUS46 KEKA 210539
TAFACV
TAF
KACV 210539Z 2106/2206 14005KT P6SM SCT020
     FM210800 15004KT 6SM BR SCT002
     FM211800 16008KT P6SM BKN200=



000
FTUS46 KEKA 202330
TAFACV
TAF
KACV 202330Z 2100/2124 16006KT 6SM -SHRA BKN035 OVC070
      TEMPO 2100/2102 5SM -TSRA BKN025CB
     FM210300 18005KT P6SM -SHRA SCT015 BKN030
     FM210600 15004KT 6SM BR FEW007 SCT015 BKN025
     FM211800 16010KT P6SM SKC=



000
FTUS46 KEKA 202330
TAFCEC
TAF
KCEC 202330Z 2100/2124 15007KT 6SM -SHRA SCT025 OVC070
      TEMPO 2100/2103 5SM -TSRA BR BKN025CB OVC035
     FM210600 15009KT 4SM BR FEW007 SCT015 BKN025
     FM211800 16010KT P6SM SKC=



000
FTUS46 KEKA 202330
TAFUKI
TAF
KUKI 202330Z 2100/2124 22011KT P6SM VCSH SCT025 BKN035 BKN080
     FM210300 33006KT P6SM VCSH FEW025 SCT035 BKN050
     FM210800 VRB03KT P6SM SCT010
     FM211800 16010KT P6SM SKC=



000
FTUS46 KEKA 202141 AAA
TAFACV
TAF AMD
KACV 202141Z 2022/2118 19009KT 6SM -SHRA BKN035 OVC070
      TEMPO 2022/2102 20010G17KT 5SM -TSRA BKN025CB OVC035
     FM210200 18005KT P6SM -SHRA SCT015 BKN030
     FM210600 15004KT 6SM BR FEW007 SCT015 BKN025=



000
FTUS46 KEKA 202141 AAA
TAFACV
TAF AMD
KACV 202141Z 2022/2118 19009KT 6SM -SHRA BKN035 OVC070
      TEMPO 2022/2102 20010G17KT 5SM -TSRA BKN025CB OVC035
     FM210200 18005KT P6SM -SHRA SCT015 BKN030
     FM210600 15004KT 6SM BR FEW007 SCT015 BKN025=



000
FTUS46 KEKA 202139 CCA
TAFCEC
TAF COR
KCEC 202139Z 2021/2118 24013G20KT P6SM -SHRA SCT017 BKN025 OVC035
      TEMPO 2022/2024 6SM -TSRA SCT025CB BKN035 OVC050
     FM210000 19012KT 6SM -SHRA SCT008 BKN017 OVC025
      TEMPO 2100/2104 5SM -TSRA BR SCT012 SCT025CB OVC035
     FM210600 15009KT 4SM BR FEW007 SCT015 BKN025=



000
FTUS46 KEKA 202139 CCA
TAFCEC
TAF COR
KCEC 202139Z 2021/2118 24013G20KT P6SM -SHRA SCT017 BKN025 OVC035
      TEMPO 2022/2024 6SM -TSRA SCT025CB BKN035 OVC050
     FM210000 19012KT 6SM -SHRA SCT008 BKN017 OVC025
      TEMPO 2100/2104 5SM -TSRA BR SCT012 SCT025CB OVC035
     FM210600 15009KT 4SM BR FEW007 SCT015 BKN025=



000
FTUS46 KEKA 202114 AAB
TAFCEC
TAF AMD
KCEC 202114Z 2021/2118 22013G20KT P6SM -SHRA SCT017 BKN025 OVC035
      TEMPO 2022/2024 6SM -TSRA SCT025CB BKN035 OVC050
     FM210000 19012KT 6SM -SHRA SCT008 BKN017 OVC025
      TEMPO 2100/2104 5SM -TSRA BR SCT012 SCT025CB OVC035
     FM210600 15009KT 4SM BR FEW007 SCT015 BKN025=



000
FTUS46 KEKA 201906 AAA
TAFCEC
TAF AMD
KCEC 201906Z 2019/2118 17013G20KT P6SM -SHRA SCT025 BKN035 OVC070
      TEMPO 2021/2101 6SM -TSRA BKN025CB OVC035
     FM210100 16009KT 6SM -SHRA BKN025
      TEMPO 2101/2105 5SM -TSRA BR SCT012 OVC025CB
     FM210600 15009KT 4SM BR FEW007 SCT015 BKN025=



000
FTUS46 KEKA 201740
TAFUKI
TAF
KUKI 201740Z 2018/2118 18008KT P6SM VCSH SCT035 BKN060
      TEMPO 2018/2021 6SM -SHRA BKN035
     FM202100 27011KT P6SM VCSH SCT025 BKN035 BKN080
     FM210100 33006KT P6SM VCSH FEW025 SCT035 BKN050
     FM210800 VRB03KT P6SM FEW025 SCT050=



000
FTUS46 KEKA 201740
TAFCEC
TAF
KCEC 201740Z 2018/2118 16013G20KT P6SM -SHRA SCT009 BKN010 OVC025
      TEMPO 2018/2020 SCT009 SCT010 OVC025
     FM202000 16013G20KT P6SM -SHRA SCT025 BKN035 OVC090
      TEMPO 2021/2101 6SM -TSRA BKN025CB OVC035
     FM210100 16009KT 6SM -SHRA BKN025
      TEMPO 2101/2105 5SM -TSRA BR SCT012 OVC025CB
     FM210600 15009KT 4SM BR FEW007 SCT015 BKN025=



000
FTUS46 KEKA 201740
TAFACV
TAF
KACV 201740Z 2018/2118 17009KT P6SM VCSH FEW025 SCT050 BKN090
      TEMPO 2018/2020 17012KT P6SM SCT025 BKN050
     FM202000 18013KT P6SM -SHRA SCT025 BKN035 OVC090
      TEMPO 2022/2102 6SM -TSRA BKN025CB OVC035
     FM210200 18005KT P6SM -SHRA SCT015 BKN030
     FM210600 15004KT 6SM BR FEW007 SCT015 BKN025=



000
FTUS46 KEKA 201628 CCA
TAFCEC
TAF COR
KCEC 201628Z 2016/2112 15009KT P6SM -SHRA SCT005 BKN011 OVC025
      TEMPO 2016/2020 16012G27KT 6SM -SHRA BKN025 BKN035 OVC070
     FM202000 16013G18KT P6SM -SHRA SCT025 BKN035 OVC090
      TEMPO 2021/2024 6SM -TSRA BKN025CB OVC035
     FM210200 16009KT 6SM -SHRA BKN025
     FM210600 15009KT 4SM BR FEW007 SCT015 BKN025=



000
FTUS46 KEKA 201541 AAB
TAFUKI
TAF AMD
KUKI 201541Z 2016/2112 18005KT 6SM -RA BR BKN004 BKN020 OVC045
      TEMPO 2016/2017 SCT004 BKN020
     FM201700 29009KT P6SM -SHRA SCT025 BKN035 BKN050
     FM210100 33006KT P6SM VCSH SCT035 BKN050
     FM210800 VRB03KT P6SM FEW025 SCT050=



000
FTUS46 KEKA 201536 CCA
TAFACV
TAF COR
KACV 201536Z 2016/2112 15009KT P6SM -SHRA BKN023 BKN050 OVC090
      TEMPO 2016/2020 6SM -SHRA SCT018 OVC035
     FM202000 18012KT P6SM -SHRA SCT025 BKN035 OVC090
      TEMPO 2022/2101 6SM -TSRA BKN025CB OVC035
     FM210500 15004KT 4SM BR FEW007 SCT015 BKN025=



000
FTUS46 KEKA 201535 AAA
TAFACV
TAF AMD
KACV 201535Z 2016/2112 15009KT P6SM -SHRA SCT018 BKN050 OVC090
      TEMPO 2016/2020 6SM -SHRA BKN018 OVC035
     FM202000 18012KT P6SM -SHRA SCT025 BKN035 OVC090
      TEMPO 2022/2101 6SM -TSRA BKN025CB OVC035
     FM210500 15004KT 4SM BR FEW007 SCT015 BKN025=



000
FTUS46 KEKA 201530 AAA
TAFCEC
TAF AMD
KCEC 201530Z 2016/2112 15009KT P6SM -SHRA SCT005 BKN011 OVC025
      TEMPO 2016/2020 6SM -SHRA BKN025 BKN035 OVC070
     FM202000 16013G18KT P6SM -SHRA SCT025 BKN035 OVC090
      TEMPO 2021/2024 6SM -TSRA BKN025CB OVC035
     FM210200 16009KT 6SM -SHRA BKN025
     FM210600 15009KT 4SM BR FEW007 SCT015 BKN025=



000
FTUS46 KEKA 201310 AAA
TAFUKI
TAF AMD
KUKI 201310Z 2013/2112 16005KT 5SM -RA BR BKN018 BKN025 OVC040
     FM201800 29009KT P6SM -SHRA SCT025 BKN035 BKN050
     FM210100 33006KT P6SM VCSH SCT035 BKN050
     FM210800 VRB03KT P6SM FEW025 SCT050=



000
FTUS46 KEKA 201138
TAFACV
TAF
KACV 201138Z 2012/2112 20007KT 5SM -RA SCT004 BKN015 OVC025
      TEMPO 2012/2014 2SM RA BR BKN004
     FM201600 21009KT 6SM -SHRA BKN025 BKN040
     FM210500 15004KT 4SM BR FEW007 SCT015 BKN025=



000
FTUS46 KEKA 201138
TAFCEC
TAF
KCEC 201138Z 2012/2112 18008G16KT 4SM RA BR SCT005 BKN015 OVC025
     FM201500 17012G20KT P6SM -SHRA SCT025 BKN035
     FM210200 16009KT 6SM -SHRA BKN025
     FM210600 15009KT 4SM BR FEW007 SCT015 BKN025=



000
FTUS46 KEKA 201138
TAFUKI
TAF
KUKI 201138Z 2012/2112 16005KT 6SM -RA BR SCT015 BKN025 OVC040
     FM201800 29009KT P6SM -SHRA SCT025 BKN035 BKN050
     FM210100 33006KT P6SM VCSH SCT035 BKN050
     FM210800 VRB03KT P6SM FEW025 SCT050=



000
FTUS46 KEKA 201051 AAB
TAFACV
TAF AMD
KACV 201051Z 2011/2106 23007KT 5SM RA SCT004 BKN015 OVC025
      TEMPO 2011/2013 2SM RA BR BKN004
     FM201600 20009KT P6SM -SHRA BKN025=



    US Dept of Commerce
    National Oceanic and Atmospheric Administration
    National Weather Service
    1325 East West Highway
    Silver Spring, MD 20910
    Page Author: NWS Internet Services Team
Disclaimer
Information Quality
Credits
Glossary
Privacy Policy
Freedom of Information Act (FOIA)
About Us
Career Opportunities